TimeMDT,TemperatureF,Dew PointF,Humidity,Sea Level PressureIn,VisibilityMPH,Wind Direction,Wind SpeedMPH,Gust SpeedMPH,PrecipitationIn,Events,Conditions,WindDirDegrees,DateUTC
12:53 AM,36.0,28.9,76,30.25,10.0,Calm,Calm,-,N/A,,Clear,0,2011-10-19 06:53:00
1:53 AM,35.1,28.0,76,30.22,10.0,Calm,Calm,-,N/A,,Clear,0,2011-10-19 07:53:00
2:53 AM,33.1,28.9,85,30.21,10.0,SE,3.5,-,N/A,,Clear,140,2011-10-19 08:53:00
3:53 AM,33.1,28.0,82,30.19,10.0,Calm,Calm,-,N/A,,Clear,0,2011-10-19 09:53:00
4:53 AM,32.0,27.0,82,30.18,10.0,Calm,Calm,-,N/A,,Clear,0,2011-10-19 10:53:00
5:53 AM,30.0,27.0,88,30.18,10.0,Calm,Calm,-,N/A,,Clear,0,2011-10-19 11:53:00
6:53 AM,30.0,26.1,85,30.19,10.0,Calm,Calm,-,N/A,,Clear,0,2011-10-19 12:53:00
7:53 AM,30.0,26.1,85,30.17,10.0,Calm,Calm,-,N/A,,Clear,0,2011-10-19 13:53:00
8:53 AM,32.0,28.4,87,30.06,8.0,Calm,Calm,-,N/A,,Clear,0,2011-10-19 14:53:00
9:53 AM,33.8,30.2,87,30.04,10.0,WNW,3.5,-,N/A,,Clear,300,2011-10-19 15:53:00
10:53 AM,37.9,30.9,76,30.12,10.0,Calm,Calm,-,N/A,,Clear,0,2011-10-19 16:53:00
11:53 AM,42.1,30.0,62,30.10,10.0,Calm,Calm,-,N/A,,Clear,0,2011-10-19 17:53:00
12:53 PM,45.0,30.9,58,30.07,10.0,Calm,Calm,-,N/A,,Clear,0,2011-10-19 18:53:00
1:53 PM,50.0,30.9,48,30.02,10.0,Calm,Calm,-,N/A,,Clear,0,2011-10-19 19:53:00
2:53 PM,50.0,32.0,50,30.01,10.0,Calm,Calm,-,N/A,,Clear,0,2011-10-19 20:53:00
3:53 PM,51.1,33.1,50,30.01,10.0,Calm,Calm,-,N/A,,Clear,0,2011-10-19 21:53:00
4:53 PM,50.0,34.0,54,30.01,10.0,Calm,Calm,-,N/A,,Clear,0,2011-10-19 22:53:00
5:53 PM,48.9,34.0,56,30.02,10.0,West,4.6,-,N/A,,Partly Cloudy,260,2011-10-19 23:53:00
6:53 PM,48.0,34.0,58,30.04,9.0,Calm,Calm,-,N/A,,Overcast,0,2011-10-20 00:53:00
7:53 PM,48.9,35.1,59,30.04,10.0,Calm,Calm,-,N/A,,Scattered Clouds,0,2011-10-20 01:53:00
8:53 PM,46.0,36.0,68,30.05,10.0,Calm,Calm,-,N/A,,Partly Cloudy,0,2011-10-20 02:53:00
9:53 PM,43.0,34.0,71,30.06,10.0,Calm,Calm,-,N/A,,Clear,0,2011-10-20 03:53:00
10:53 PM,42.1,33.1,70,30.06,10.0,Calm,Calm,-,N/A,,Clear,0,2011-10-20 04:53:00
11:53 PM,39.0,33.1,79,30.07,10.0,Calm,Calm,-,N/A,,Clear,0,2011-10-20 05:53:00